sensor_id;sensor_type;location;lat;lon;timestamp;temperature;humidity
29803;DHT22;16702;50.898;4.662;2022-07-23T00:01:34;19.90;99.90
29803;DHT22;16702;50.898;4.662;2022-07-23T00:04:04;19.90;99.90
29803;DHT22;16702;50.898;4.662;2022-07-23T00:06:37;19.90;99.90
29803;DHT22;16702;50.898;4.662;2022-07-23T00:09:08;19.90;99.90
29803;DHT22;16702;50.898;4.662;2022-07-23T00:11:38;19.90;99.90
29803;DHT22;16702;50.898;4.662;2022-07-23T00:14:09;19.90;99.90
29803;DHT22;16702;50.898;4.662;2022-07-23T00:16:39;19.90;99.90
29803;DHT22;16702;50.898;4.662;2022-07-23T00:19:09;19.80;99.90
29803;DHT22;16702;50.898;4.662;2022-07-23T00:21:42;19.80;99.90
29803;DHT22;16702;50.898;4.662;2022-07-23T00:24:13;19.80;99.90
29803;DHT22;16702;50.898;4.662;2022-07-23T00:26:43;19.70;99.90
29803;DHT22;16702;50.898;4.662;2022-07-23T00:29:13;19.80;99.90
29803;DHT22;16702;50.898;4.662;2022-07-23T00:31:44;19.70;99.90
29803;DHT22;16702;50.898;4.662;2022-07-23T00:34:14;19.70;99.90
29803;DHT22;16702;50.898;4.662;2022-07-23T00:36:47;19.70;99.90
29803;DHT22;16702;50.898;4.662;2022-07-23T00:39:17;19.60;99.90
29803;DHT22;16702;50.898;4.662;2022-07-23T00:41:49;19.70;99.90
29803;DHT22;16702;50.898;4.662;2022-07-23T00:44:22;19.60;99.90
29803;DHT22;16702;50.898;4.662;2022-07-23T00:46:56;19.60;99.90
29803;DHT22;16702;50.898;4.662;2022-07-23T00:49:29;19.60;99.90
29803;DHT22;16702;50.898;4.662;2022-07-23T00:52:03;19.60;99.90
29803;DHT22;16702;50.898;4.662;2022-07-23T00:54:33;19.50;99.90
29803;DHT22;16702;50.898;4.662;2022-07-23T00:57:04;19.50;99.90
29803;DHT22;16702;50.898;4.662;2022-07-23T00:59:34;19.50;99.90
29803;DHT22;16702;50.898;4.662;2022-07-23T01:02:08;19.50;99.90
29803;DHT22;16702;50.898;4.662;2022-07-23T01:04:38;19.50;99.90
29803;DHT22;16702;50.898;4.662;2022-07-23T01:07:11;19.50;99.90
29803;DHT22;16702;50.898;4.662;2022-07-23T01:09:42;19.40;99.90
29803;DHT22;16702;50.898;4.662;2022-07-23T01:12:13;19.40;99.90
29803;DHT22;16702;50.898;4.662;2022-07-23T01:14:43;19.40;99.90
29803;DHT22;16702;50.898;4.662;2022-07-23T01:17:14;19.40;99.90
29803;DHT22;16702;50.898;4.662;2022-07-23T01:19:44;19.40;99.90
29803;DHT22;16702;50.898;4.662;2022-07-23T01:22:19;19.30;99.90
29803;DHT22;16702;50.898;4.662;2022-07-23T01:24:52;19.30;99.90
29803;DHT22;16702;50.898;4.662;2022-07-23T01:27:24;19.30;99.90
29803;DHT22;16702;50.898;4.662;2022-07-23T01:30:00;19.30;99.90
29803;DHT22;16702;50.898;4.662;2022-07-23T01:32:31;19.20;99.90
29803;DHT22;16702;50.898;4.662;2022-07-23T01:35:02;19.20;99.90
29803;DHT22;16702;50.898;4.662;2022-07-23T01:37:35;19.20;99.90
29803;DHT22;16702;50.898;4.662;2022-07-23T01:40:09;19.20;99.90
29803;DHT22;16702;50.898;4.662;2022-07-23T01:42:40;19.10;99.90
29803;DHT22;16702;50.898;4.662;2022-07-23T01:45:12;19.10;99.90
29803;DHT22;16702;50.898;4.662;2022-07-23T01:47:47;19.10;99.90
29803;DHT22;16702;50.898;4.662;2022-07-23T01:50:18;19.10;99.90
29803;DHT22;16702;50.898;4.662;2022-07-23T01:53:07;19.10;99.90
29803;DHT22;16702;50.898;4.662;2022-07-23T01:55:41;19.10;99.90
29803;DHT22;16702;50.898;4.662;2022-07-23T01:58:11;19.00;99.90
29803;DHT22;16702;50.898;4.662;2022-07-23T02:00:42;19.00;99.90
29803;DHT22;16702;50.898;4.662;2022-07-23T02:03:12;19.00;99.90
29803;DHT22;16702;50.898;4.662;2022-07-23T02:05:42;19.00;99.90
29803;DHT22;16702;50.898;4.662;2022-07-23T02:08:14;19.00;99.90
29803;DHT22;16702;50.898;4.662;2022-07-23T02:10:47;18.90;99.90
29803;DHT22;16702;50.898;4.662;2022-07-23T02:13:18;18.90;99.90
29803;DHT22;16702;50.898;4.662;2022-07-23T02:15:50;18.90;99.90
29803;DHT22;16702;50.898;4.662;2022-07-23T02:18:20;18.90;99.90
29803;DHT22;16702;50.898;4.662;2022-07-23T02:20:51;18.90;99.90
29803;DHT22;16702;50.898;4.662;2022-07-23T02:23:21;18.90;99.90
29803;DHT22;16702;50.898;4.662;2022-07-23T02:25:56;18.80;99.90
29803;DHT22;16702;50.898;4.662;2022-07-23T02:28:28;18.80;99.90
29803;DHT22;16702;50.898;4.662;2022-07-23T02:30:59;18.80;99.90
29803;DHT22;16702;50.898;4.662;2022-07-23T02:33:29;18.80;99.90
29803;DHT22;16702;50.898;4.662;2022-07-23T02:36:00;18.70;99.90
29803;DHT22;16702;50.898;4.662;2022-07-23T02:38:31;18.80;99.90
29803;DHT22;16702;50.898;4.662;2022-07-23T02:41:04;18.80;99.90
29803;DHT22;16702;50.898;4.662;2022-07-23T02:43:37;18.80;99.90
29803;DHT22;16702;50.898;4.662;2022-07-23T02:46:08;18.70;99.90
29803;DHT22;16702;50.898;4.662;2022-07-23T02:48:39;18.70;99.90
29803;DHT22;16702;50.898;4.662;2022-07-23T02:51:09;18.60;99.90
29803;DHT22;16702;50.898;4.662;2022-07-23T02:53:52;18.60;99.90
29803;DHT22;16702;50.898;4.662;2022-07-23T02:56:25;18.60;99.90
29803;DHT22;16702;50.898;4.662;2022-07-23T02:58:57;18.60;99.90
29803;DHT22;16702;50.898;4.662;2022-07-23T03:01:27;18.60;99.90
29803;DHT22;16702;50.898;4.662;2022-07-23T03:03:59;18.60;99.90
29803;DHT22;16702;50.898;4.662;2022-07-23T03:06:29;18.60;99.90
29803;DHT22;16702;50.898;4.662;2022-07-23T03:09:00;18.60;99.90
29803;DHT22;16702;50.898;4.662;2022-07-23T03:11:33;18.60;99.90
29803;DHT22;16702;50.898;4.662;2022-07-23T03:14:04;18.60;99.90
29803;DHT22;16702;50.898;4.662;2022-07-23T03:16:36;18.60;99.90
29803;DHT22;16702;50.898;4.662;2022-07-23T03:19:06;18.50;99.90
29803;DHT22;16702;50.898;4.662;2022-07-23T03:21:36;18.50;99.90
29803;DHT22;16702;50.898;4.662;2022-07-23T03:24:08;18.40;99.90
29803;DHT22;16702;50.898;4.662;2022-07-23T03:26:41;18.40;99.90
29803;DHT22;16702;50.898;4.662;2022-07-23T03:29:12;18.40;99.90
29803;DHT22;16702;50.898;4.662;2022-07-23T03:31:42;18.50;99.90
29803;DHT22;16702;50.898;4.662;2022-07-23T03:34:13;18.40;99.90
29803;DHT22;16702;50.898;4.662;2022-07-23T03:36:45;18.40;99.90
29803;DHT22;16702;50.898;4.662;2022-07-23T03:39:16;18.40;99.90
29803;DHT22;16702;50.898;4.662;2022-07-23T03:41:49;18.30;99.90
29803;DHT22;16702;50.898;4.662;2022-07-23T03:44:19;18.30;99.90
29803;DHT22;16702;50.898;4.662;2022-07-23T03:46:50;18.30;99.90
29803;DHT22;16702;50.898;4.662;2022-07-23T03:49:21;18.30;99.90
29803;DHT22;16702;50.898;4.662;2022-07-23T03:51:55;18.30;99.90
29803;DHT22;16702;50.898;4.662;2022-07-23T03:54:26;18.20;99.90
29803;DHT22;16702;50.898;4.662;2022-07-23T03:56:59;18.20;99.90
29803;DHT22;16702;50.898;4.662;2022-07-23T03:59:32;18.20;99.90
29803;DHT22;16702;50.898;4.662;2022-07-23T04:02:02;18.20;99.90
29803;DHT22;16702;50.898;4.662;2022-07-23T04:04:33;18.10;99.90
29803;DHT22;16702;50.898;4.662;2022-07-23T04:07:03;18.20;99.90
29803;DHT22;16702;50.898;4.662;2022-07-23T04:09:35;18.20;99.90
29803;DHT22;16702;50.898;4.662;2022-07-23T04:12:13;18.10;99.90
29803;DHT22;16702;50.898;4.662;2022-07-23T04:14:44;18.20;99.90
29803;DHT22;16702;50.898;4.662;2022-07-23T04:17:14;18.10;99.90
29803;DHT22;16702;50.898;4.662;2022-07-23T04:19:45;18.10;99.90
29803;DHT22;16702;50.898;4.662;2022-07-23T04:22:18;18.10;99.90
29803;DHT22;16702;50.898;4.662;2022-07-23T04:24:49;18.20;99.90
29803;DHT22;16702;50.898;4.662;2022-07-23T04:27:22;18.10;99.90
29803;DHT22;16702;50.898;4.662;2022-07-23T04:29:52;18.10;99.90
29803;DHT22;16702;50.898;4.662;2022-07-23T04:32:23;18.10;99.90
29803;DHT22;16702;50.898;4.662;2022-07-23T04:34:54;18.10;99.90
29803;DHT22;16702;50.898;4.662;2022-07-23T04:37:24;18.10;99.90
29803;DHT22;16702;50.898;4.662;2022-07-23T04:39:55;18.10;99.90
29803;DHT22;16702;50.898;4.662;2022-07-23T04:42:28;18.20;99.90
29803;DHT22;16702;50.898;4.662;2022-07-23T04:44:59;18.10;99.90
29803;DHT22;16702;50.898;4.662;2022-07-23T04:47:35;18.10;99.90
29803;DHT22;16702;50.898;4.662;2022-07-23T04:50:07;18.10;99.90
29803;DHT22;16702;50.898;4.662;2022-07-23T04:52:39;18.10;99.90
29803;DHT22;16702;50.898;4.662;2022-07-23T04:55:10;18.10;99.90
29803;DHT22;16702;50.898;4.662;2022-07-23T04:57:43;18.10;99.90
29803;DHT22;16702;50.898;4.662;2022-07-23T05:00:14;18.10;99.90
29803;DHT22;16702;50.898;4.662;2022-07-23T05:02:45;18.10;99.90
29803;DHT22;16702;50.898;4.662;2022-07-23T05:05:16;18.20;99.90
29803;DHT22;16702;50.898;4.662;2022-07-23T05:07:47;18.20;99.90
29803;DHT22;16702;50.898;4.662;2022-07-23T05:10:17;18.20;99.90
29803;DHT22;16702;50.898;4.662;2022-07-23T05:12:50;18.20;99.90
29803;DHT22;16702;50.898;4.662;2022-07-23T05:15:21;18.20;99.90
29803;DHT22;16702;50.898;4.662;2022-07-23T05:17:52;18.10;99.90
29803;DHT22;16702;50.898;4.662;2022-07-23T05:20:22;18.10;99.90
29803;DHT22;16702;50.898;4.662;2022-07-23T05:22:53;18.20;99.90
29803;DHT22;16702;50.898;4.662;2022-07-23T05:25:23;18.20;99.90
29803;DHT22;16702;50.898;4.662;2022-07-23T05:27:56;18.20;99.90
29803;DHT22;16702;50.898;4.662;2022-07-23T05:30:27;18.20;99.90
29803;DHT22;16702;50.898;4.662;2022-07-23T05:33:01;18.20;99.90
29803;DHT22;16702;50.898;4.662;2022-07-23T05:35:31;18.20;99.90
29803;DHT22;16702;50.898;4.662;2022-07-23T05:38:20;18.20;99.90
29803;DHT22;16702;50.898;4.662;2022-07-23T05:40:52;18.30;99.90
29803;DHT22;16702;50.898;4.662;2022-07-23T05:43:25;18.30;99.90
29803;DHT22;16702;50.898;4.662;2022-07-23T05:45:58;18.30;99.90
29803;DHT22;16702;50.898;4.662;2022-07-23T05:48:29;18.20;99.90
29803;DHT22;16702;50.898;4.662;2022-07-23T05:51:07;18.10;99.90
29803;DHT22;16702;50.898;4.662;2022-07-23T05:53:38;18.40;99.90
29803;DHT22;16702;50.898;4.662;2022-07-23T05:56:28;18.40;99.90
29803;DHT22;16702;50.898;4.662;2022-07-23T05:59:02;18.30;99.90
29803;DHT22;16702;50.898;4.662;2022-07-23T06:01:34;18.40;99.90
29803;DHT22;16702;50.898;4.662;2022-07-23T06:04:08;18.40;99.90
29803;DHT22;16702;50.898;4.662;2022-07-23T06:06:45;18.50;99.90
29803;DHT22;16702;50.898;4.662;2022-07-23T06:09:16;18.50;99.90
29803;DHT22;16702;50.898;4.662;2022-07-23T06:11:46;18.40;99.90
29803;DHT22;16702;50.898;4.662;2022-07-23T06:14:19;18.50;99.90
29803;DHT22;16702;50.898;4.662;2022-07-23T06:16:55;18.50;99.90
29803;DHT22;16702;50.898;4.662;2022-07-23T06:19:27;18.60;99.90
29803;DHT22;16702;50.898;4.662;2022-07-23T06:21:57;18.60;99.90
29803;DHT22;16702;50.898;4.662;2022-07-23T06:24:28;18.70;99.90
29803;DHT22;16702;50.898;4.662;2022-07-23T06:26:59;18.70;99.90
29803;DHT22;16702;50.898;4.662;2022-07-23T06:29:32;18.60;99.90
29803;DHT22;16702;50.898;4.662;2022-07-23T06:32:03;18.70;99.90
29803;DHT22;16702;50.898;4.662;2022-07-23T06:34:33;18.80;99.90
29803;DHT22;16702;50.898;4.662;2022-07-23T06:37:04;18.70;99.90
29803;DHT22;16702;50.898;4.662;2022-07-23T06:39:35;18.80;99.90
29803;DHT22;16702;50.898;4.662;2022-07-23T06:42:06;18.70;99.90
29803;DHT22;16702;50.898;4.662;2022-07-23T06:44:46;18.80;99.90
29803;DHT22;16702;50.898;4.662;2022-07-23T06:47:17;19.00;99.90
29803;DHT22;16702;50.898;4.662;2022-07-23T06:49:47;18.90;99.90
29803;DHT22;16702;50.898;4.662;2022-07-23T06:52:18;19.00;99.90
29803;DHT22;16702;50.898;4.662;2022-07-23T06:54:48;19.00;99.90
29803;DHT22;16702;50.898;4.662;2022-07-23T06:57:19;19.00;99.90
29803;DHT22;16702;50.898;4.662;2022-07-23T06:59:52;19.00;99.90
29803;DHT22;16702;50.898;4.662;2022-07-23T07:02:25;19.00;99.90
29803;DHT22;16702;50.898;4.662;2022-07-23T07:04:55;19.00;99.90
29803;DHT22;16702;50.898;4.662;2022-07-23T07:07:32;19.10;99.90
29803;DHT22;16702;50.898;4.662;2022-07-23T07:10:02;19.10;99.90
29803;DHT22;16702;50.898;4.662;2022-07-23T07:12:39;19.20;99.90
29803;DHT22;16702;50.898;4.662;2022-07-23T07:15:12;19.30;99.90
29803;DHT22;16702;50.898;4.662;2022-07-23T07:17:44;19.30;99.90
29803;DHT22;16702;50.898;4.662;2022-07-23T07:20:14;19.40;99.90
29803;DHT22;16702;50.898;4.662;2022-07-23T07:22:45;19.40;99.90
29803;DHT22;16702;50.898;4.662;2022-07-23T07:25:15;19.40;99.90
29803;DHT22;16702;50.898;4.662;2022-07-23T07:27:45;19.40;99.90
29803;DHT22;16702;50.898;4.662;2022-07-23T07:30:18;19.30;99.90
29803;DHT22;16702;50.898;4.662;2022-07-23T07:32:49;19.40;99.90
29803;DHT22;16702;50.898;4.662;2022-07-23T07:35:23;19.50;99.90
29803;DHT22;16702;50.898;4.662;2022-07-23T07:37:54;19.60;99.90
29803;DHT22;16702;50.898;4.662;2022-07-23T07:40:24;19.50;99.90
29803;DHT22;16702;50.898;4.662;2022-07-23T07:43:00;19.60;99.90
29803;DHT22;16702;50.898;4.662;2022-07-23T07:45:34;19.60;99.90
29803;DHT22;16702;50.898;4.662;2022-07-23T07:48:05;19.60;99.90
29803;DHT22;16702;50.898;4.662;2022-07-23T07:50:35;19.80;99.90
29803;DHT22;16702;50.898;4.662;2022-07-23T07:53:06;19.80;99.90
29803;DHT22;16702;50.898;4.662;2022-07-23T07:55:36;19.80;99.90
29803;DHT22;16702;50.898;4.662;2022-07-23T07:58:06;19.80;99.90
29803;DHT22;16702;50.898;4.662;2022-07-23T08:00:39;19.90;99.90
29803;DHT22;16702;50.898;4.662;2022-07-23T08:03:11;20.00;99.90
29803;DHT22;16702;50.898;4.662;2022-07-23T08:05:42;20.00;99.90
29803;DHT22;16702;50.898;4.662;2022-07-23T08:08:12;20.00;99.90
29803;DHT22;16702;50.898;4.662;2022-07-23T08:10:44;20.10;99.90
29803;DHT22;16702;50.898;4.662;2022-07-23T08:13:15;20.10;99.90
29803;DHT22;16702;50.898;4.662;2022-07-23T08:15:48;20.20;99.90
29803;DHT22;16702;50.898;4.662;2022-07-23T08:18:20;20.20;99.90
29803;DHT22;16702;50.898;4.662;2022-07-23T08:20:51;20.20;99.90
29803;DHT22;16702;50.898;4.662;2022-07-23T08:23:21;20.30;99.90
29803;DHT22;16702;50.898;4.662;2022-07-23T08:25:56;20.40;99.90
29803;DHT22;16702;50.898;4.662;2022-07-23T08:28:27;20.50;99.90
29803;DHT22;16702;50.898;4.662;2022-07-23T08:31:03;20.40;99.90
29803;DHT22;16702;50.898;4.662;2022-07-23T08:33:34;20.50;99.90
29803;DHT22;16702;50.898;4.662;2022-07-23T08:36:05;20.40;99.90
29803;DHT22;16702;50.898;4.662;2022-07-23T08:38:35;20.50;99.90
29803;DHT22;16702;50.898;4.662;2022-07-23T08:41:07;20.70;99.90
29803;DHT22;16702;50.898;4.662;2022-07-23T08:43:38;20.80;99.90
29803;DHT22;16702;50.898;4.662;2022-07-23T08:46:14;20.80;99.90
29803;DHT22;16702;50.898;4.662;2022-07-23T08:48:49;20.80;99.90
29803;DHT22;16702;50.898;4.662;2022-07-23T08:51:21;20.80;99.90
29803;DHT22;16702;50.898;4.662;2022-07-23T08:53:56;20.90;99.90
29803;DHT22;16702;50.898;4.662;2022-07-23T08:56:28;21.00;99.90
29803;DHT22;16702;50.898;4.662;2022-07-23T08:58:58;21.10;99.90
29803;DHT22;16702;50.898;4.662;2022-07-23T09:01:31;21.00;99.90
29803;DHT22;16702;50.898;4.662;2022-07-23T09:04:02;21.10;99.90
29803;DHT22;16702;50.898;4.662;2022-07-23T09:06:32;21.10;99.90
29803;DHT22;16702;50.898;4.662;2022-07-23T09:09:16;21.10;99.90
29803;DHT22;16702;50.898;4.662;2022-07-23T09:11:48;21.30;99.90
29803;DHT22;16702;50.898;4.662;2022-07-23T09:14:36;21.30;99.90
29803;DHT22;16702;50.898;4.662;2022-07-23T09:17:16;21.30;99.90
29803;DHT22;16702;50.898;4.662;2022-07-23T09:19:50;21.40;99.90
29803;DHT22;16702;50.898;4.662;2022-07-23T09:22:24;21.50;99.90
29803;DHT22;16702;50.898;4.662;2022-07-23T09:25:09;21.60;99.90
29803;DHT22;16702;50.898;4.662;2022-07-23T09:27:52;21.70;99.90
29803;DHT22;16702;50.898;4.662;2022-07-23T09:30:24;21.70;99.90
29803;DHT22;16702;50.898;4.662;2022-07-23T09:33:08;21.70;99.90
29803;DHT22;16702;50.898;4.662;2022-07-23T09:35:47;21.80;99.90
29803;DHT22;16702;50.898;4.662;2022-07-23T09:38:19;21.80;99.90
29803;DHT22;16702;50.898;4.662;2022-07-23T09:41:05;21.90;99.90
29803;DHT22;16702;50.898;4.662;2022-07-23T09:43:36;22.00;99.90
29803;DHT22;16702;50.898;4.662;2022-07-23T09:46:20;22.00;99.90
29803;DHT22;16702;50.898;4.662;2022-07-23T09:48:55;22.20;99.90
29803;DHT22;16702;50.898;4.662;2022-07-23T09:51:26;22.10;99.90
29803;DHT22;16702;50.898;4.662;2022-07-23T09:54:01;22.30;99.90
29803;DHT22;16702;50.898;4.662;2022-07-23T09:56:33;22.30;99.90
29803;DHT22;16702;50.898;4.662;2022-07-23T09:59:04;22.40;99.90
29803;DHT22;16702;50.898;4.662;2022-07-23T10:01:37;22.50;99.90
29803;DHT22;16702;50.898;4.662;2022-07-23T10:04:11;22.50;99.90
29803;DHT22;16702;50.898;4.662;2022-07-23T10:07:02;22.70;99.90
29803;DHT22;16702;50.898;4.662;2022-07-23T10:09:51;22.60;99.90
29803;DHT22;16702;50.898;4.662;2022-07-23T10:12:43;22.80;99.90
29803;DHT22;16702;50.898;4.662;2022-07-23T10:15:32;22.80;99.90
29803;DHT22;16702;50.898;4.662;2022-07-23T10:18:02;22.90;99.90
29803;DHT22;16702;50.898;4.662;2022-07-23T10:20:36;23.10;99.90
29803;DHT22;16702;50.898;4.662;2022-07-23T10:23:14;23.10;99.90
29803;DHT22;16702;50.898;4.662;2022-07-23T10:25:49;23.10;99.90
29803;DHT22;16702;50.898;4.662;2022-07-23T10:28:38;23.20;99.90
29803;DHT22;16702;50.898;4.662;2022-07-23T10:31:20;23.20;99.90
29803;DHT22;16702;50.898;4.662;2022-07-23T10:34:21;23.30;99.90
29803;DHT22;16702;50.898;4.662;2022-07-23T10:37:03;23.40;99.90
29803;DHT22;16702;50.898;4.662;2022-07-23T10:39:37;23.40;99.90
29803;DHT22;16702;50.898;4.662;2022-07-23T10:42:09;23.40;99.90
29803;DHT22;16702;50.898;4.662;2022-07-23T10:44:42;23.60;99.90
29803;DHT22;16702;50.898;4.662;2022-07-23T10:47:27;23.70;99.90
29803;DHT22;16702;50.898;4.662;2022-07-23T10:50:24;23.70;99.90
29803;DHT22;16702;50.898;4.662;2022-07-23T10:53:14;23.90;99.90
29803;DHT22;16702;50.898;4.662;2022-07-23T10:55:47;23.90;99.90
29803;DHT22;16702;50.898;4.662;2022-07-23T10:58:23;24.00;99.90
29803;DHT22;16702;50.898;4.662;2022-07-23T11:01:31;24.00;99.90
29803;DHT22;16702;50.898;4.662;2022-07-23T11:04:03;24.10;99.90
29803;DHT22;16702;50.898;4.662;2022-07-23T11:09:42;24.20;99.90
29803;DHT22;16702;50.898;4.662;2022-07-23T11:12:31;24.10;99.90
29803;DHT22;16702;50.898;4.662;2022-07-23T11:15:05;24.10;99.90
29803;DHT22;16702;50.898;4.662;2022-07-23T11:17:39;24.30;99.90
29803;DHT22;16702;50.898;4.662;2022-07-23T11:20:16;24.50;99.90
29803;DHT22;16702;50.898;4.662;2022-07-23T11:22:52;24.50;99.90
29803;DHT22;16702;50.898;4.662;2022-07-23T11:25:36;24.40;99.90
29803;DHT22;16702;50.898;4.662;2022-07-23T11:28:11;24.60;99.90
29803;DHT22;16702;50.898;4.662;2022-07-23T11:30:43;24.60;99.90
29803;DHT22;16702;50.898;4.662;2022-07-23T11:33:21;24.60;99.90
29803;DHT22;16702;50.898;4.662;2022-07-23T11:36:01;24.60;99.90
29803;DHT22;16702;50.898;4.662;2022-07-23T11:38:32;24.70;99.90
29803;DHT22;16702;50.898;4.662;2022-07-23T11:41:05;24.90;99.90
29803;DHT22;16702;50.898;4.662;2022-07-23T11:43:40;25.10;99.90
29803;DHT22;16702;50.898;4.662;2022-07-23T11:46:10;25.10;99.70
29803;DHT22;16702;50.898;4.662;2022-07-23T11:48:41;25.10;99.70
29803;DHT22;16702;50.898;4.662;2022-07-23T11:51:25;25.10;99.80
29803;DHT22;16702;50.898;4.662;2022-07-23T11:54:05;25.10;99.90
29803;DHT22;16702;50.898;4.662;2022-07-23T11:56:55;25.30;99.10
29803;DHT22;16702;50.898;4.662;2022-07-23T11:59:28;25.30;98.50
29803;DHT22;16702;50.898;4.662;2022-07-23T12:02:00;25.40;98.70
29803;DHT22;16702;50.898;4.662;2022-07-23T12:04:37;25.40;98.50
29803;DHT22;16702;50.898;4.662;2022-07-23T12:07:26;25.60;98.90
29803;DHT22;16702;50.898;4.662;2022-07-23T12:09:58;25.50;97.50
29803;DHT22;16702;50.898;4.662;2022-07-23T12:12:38;25.60;98.40
29803;DHT22;16702;50.898;4.662;2022-07-23T12:15:10;25.60;97.30
29803;DHT22;16702;50.898;4.662;2022-07-23T12:17:43;25.80;99.60
29803;DHT22;16702;50.898;4.662;2022-07-23T12:20:19;25.70;97.90
29803;DHT22;16702;50.898;4.662;2022-07-23T12:22:52;26.00;98.80
29803;DHT22;16702;50.898;4.662;2022-07-23T12:25:24;26.20;97.50
29803;DHT22;16702;50.898;4.662;2022-07-23T12:28:03;26.20;97.40
29803;DHT22;16702;50.898;4.662;2022-07-23T12:30:37;26.20;96.70
29803;DHT22;16702;50.898;4.662;2022-07-23T12:33:10;26.20;97.60
29803;DHT22;16702;50.898;4.662;2022-07-23T12:35:46;26.40;97.50
29803;DHT22;16702;50.898;4.662;2022-07-23T12:38:21;26.20;97.50
29803;DHT22;16702;50.898;4.662;2022-07-23T12:40:53;26.30;96.20
29803;DHT22;16702;50.898;4.662;2022-07-23T12:43:27;26.50;96.80
29803;DHT22;16702;50.898;4.662;2022-07-23T12:46:04;26.50;96.90
29803;DHT22;16702;50.898;4.662;2022-07-23T12:48:36;26.50;96.80
29803;DHT22;16702;50.898;4.662;2022-07-23T12:51:07;26.60;96.20
29803;DHT22;16702;50.898;4.662;2022-07-23T12:53:46;26.60;96.00
29803;DHT22;16702;50.898;4.662;2022-07-23T12:56:22;26.80;96.50
29803;DHT22;16702;50.898;4.662;2022-07-23T12:59:04;26.80;96.50
29803;DHT22;16702;50.898;4.662;2022-07-23T13:01:39;26.80;96.50
29803;DHT22;16702;50.898;4.662;2022-07-23T13:04:13;27.00;96.20
29803;DHT22;16702;50.898;4.662;2022-07-23T13:06:46;27.10;97.80
29803;DHT22;16702;50.898;4.662;2022-07-23T13:09:19;27.30;97.30
29803;DHT22;16702;50.898;4.662;2022-07-23T13:11:53;27.30;97.40
29803;DHT22;16702;50.898;4.662;2022-07-23T13:14:27;27.20;96.50
29803;DHT22;16702;50.898;4.662;2022-07-23T13:16:58;27.40;96.80
29803;DHT22;16702;50.898;4.662;2022-07-23T13:19:28;27.40;95.30
29803;DHT22;16702;50.898;4.662;2022-07-23T13:21:58;27.60;95.10
29803;DHT22;16702;50.898;4.662;2022-07-23T13:24:35;27.60;96.30
29803;DHT22;16702;50.898;4.662;2022-07-23T13:27:06;27.40;94.30
29803;DHT22;16702;50.898;4.662;2022-07-23T13:29:59;27.40;95.40
29803;DHT22;16702;50.898;4.662;2022-07-23T13:32:30;27.50;94.90
29803;DHT22;16702;50.898;4.662;2022-07-23T13:35:00;27.50;95.20
29803;DHT22;16702;50.898;4.662;2022-07-23T13:37:31;27.30;95.30
29803;DHT22;16702;50.898;4.662;2022-07-23T13:40:02;27.10;95.70
29803;DHT22;16702;50.898;4.662;2022-07-23T13:42:44;27.10;95.00
29803;DHT22;16702;50.898;4.662;2022-07-23T13:45:17;27.00;95.50
29803;DHT22;16702;50.898;4.662;2022-07-23T13:47:48;27.00;95.70
29803;DHT22;16702;50.898;4.662;2022-07-23T13:50:18;27.00;96.80
29803;DHT22;16702;50.898;4.662;2022-07-23T13:52:49;27.40;95.20
29803;DHT22;16702;50.898;4.662;2022-07-23T13:55:20;27.50;95.10
29803;DHT22;16702;50.898;4.662;2022-07-23T13:57:53;27.50;95.00
29803;DHT22;16702;50.898;4.662;2022-07-23T14:00:27;27.30;95.20
29803;DHT22;16702;50.898;4.662;2022-07-23T14:03:18;27.30;95.00
29803;DHT22;16702;50.898;4.662;2022-07-23T14:05:50;27.50;95.20
29803;DHT22;16702;50.898;4.662;2022-07-23T14:08:23;27.70;95.10
29803;DHT22;16702;50.898;4.662;2022-07-23T14:10:54;27.70;94.20
29803;DHT22;16702;50.898;4.662;2022-07-23T14:13:25;27.70;94.00
29803;DHT22;16702;50.898;4.662;2022-07-23T14:15:59;27.40;94.40
29803;DHT22;16702;50.898;4.662;2022-07-23T14:18:30;27.30;94.90
29803;DHT22;16702;50.898;4.662;2022-07-23T14:21:00;27.30;94.50
29803;DHT22;16702;50.898;4.662;2022-07-23T14:23:33;27.20;94.10
29803;DHT22;16702;50.898;4.662;2022-07-23T14:26:09;27.40;95.20
29803;DHT22;16702;50.898;4.662;2022-07-23T14:28:41;27.70;94.90
29803;DHT22;16702;50.898;4.662;2022-07-23T14:31:17;28.00;95.80
29803;DHT22;16702;50.898;4.662;2022-07-23T14:33:49;28.10;93.80
29803;DHT22;16702;50.898;4.662;2022-07-23T14:36:20;28.10;95.10
29803;DHT22;16702;50.898;4.662;2022-07-23T14:38:51;28.20;93.90
29803;DHT22;16702;50.898;4.662;2022-07-23T14:41:23;28.20;93.30
29803;DHT22;16702;50.898;4.662;2022-07-23T14:43:54;28.20;93.40
29803;DHT22;16702;50.898;4.662;2022-07-23T14:46:27;28.20;93.30
29803;DHT22;16702;50.898;4.662;2022-07-23T14:48:59;28.10;93.90
29803;DHT22;16702;50.898;4.662;2022-07-23T14:51:32;28.10;94.10
29803;DHT22;16702;50.898;4.662;2022-07-23T14:54:04;27.90;93.70
29803;DHT22;16702;50.898;4.662;2022-07-23T14:56:35;27.90;94.20
29803;DHT22;16702;50.898;4.662;2022-07-23T14:59:06;28.10;93.90
29803;DHT22;16702;50.898;4.662;2022-07-23T15:01:39;28.30;93.60
29803;DHT22;16702;50.898;4.662;2022-07-23T15:04:10;28.40;93.10
29803;DHT22;16702;50.898;4.662;2022-07-23T15:07:00;28.30;93.40
29803;DHT22;16702;50.898;4.662;2022-07-23T15:09:32;28.40;93.10
29803;DHT22;16702;50.898;4.662;2022-07-23T15:12:03;28.00;92.60
29803;DHT22;16702;50.898;4.662;2022-07-23T15:14:38;27.90;92.90
29803;DHT22;16702;50.898;4.662;2022-07-23T15:17:12;28.10;92.50
29803;DHT22;16702;50.898;4.662;2022-07-23T15:19:42;28.20;93.20
29803;DHT22;16702;50.898;4.662;2022-07-23T15:22:15;28.30;93.40
29803;DHT22;16702;50.898;4.662;2022-07-23T15:24:48;28.60;93.80
29803;DHT22;16702;50.898;4.662;2022-07-23T15:27:18;28.80;93.00
29803;DHT22;16702;50.898;4.662;2022-07-23T15:29:48;28.70;91.80
29803;DHT22;16702;50.898;4.662;2022-07-23T15:32:21;28.60;92.50
29803;DHT22;16702;50.898;4.662;2022-07-23T15:34:54;28.70;93.60
29803;DHT22;16702;50.898;4.662;2022-07-23T15:37:24;28.80;93.30
29803;DHT22;16702;50.898;4.662;2022-07-23T15:39:55;29.00;91.70
29803;DHT22;16702;50.898;4.662;2022-07-23T15:42:26;29.20;92.50
29803;DHT22;16702;50.898;4.662;2022-07-23T15:44:57;29.30;91.60
29803;DHT22;16702;50.898;4.662;2022-07-23T15:47:30;29.30;91.60
29803;DHT22;16702;50.898;4.662;2022-07-23T15:50:01;29.10;91.60
29803;DHT22;16702;50.898;4.662;2022-07-23T15:52:31;29.20;91.10
29803;DHT22;16702;50.898;4.662;2022-07-23T15:55:02;29.20;90.70
29803;DHT22;16702;50.898;4.662;2022-07-23T15:57:43;29.50;90.80
29803;DHT22;16702;50.898;4.662;2022-07-23T16:00:14;29.40;91.00
29803;DHT22;16702;50.898;4.662;2022-07-23T16:02:47;29.50;90.90
29803;DHT22;16702;50.898;4.662;2022-07-23T16:05:20;29.20;90.70
29803;DHT22;16702;50.898;4.662;2022-07-23T16:08:04;29.40;90.80
29803;DHT22;16702;50.898;4.662;2022-07-23T16:10:35;29.40;90.20
29803;DHT22;16702;50.898;4.662;2022-07-23T16:13:05;29.20;90.80